createdAt,value
2018-09-01T00:04:41.567Z,98568.17
2018-09-01T00:09:36.499Z,98563.67
2018-09-01T00:14:29.463Z,98564.13
2018-09-01T00:19:22.465Z,98565.72
2018-09-01T00:24:15.447Z,98563.03
2018-09-01T00:29:08.627Z,98561.83
2018-09-01T00:34:01.781Z,98552.37
2018-09-01T00:39:00.234Z,98562.39
2018-09-01T00:43:53.421Z,98561.25
2018-09-01T00:48:46.499Z,98558.33
2018-09-01T00:53:39.429Z,98561.25
2018-09-01T00:58:32.788Z,98556.87
2018-09-01T01:03:25.939Z,98552.06
2018-09-01T01:08:19.335Z,98546.97
2018-09-01T01:13:12.591Z,98553.67
2018-09-01T01:18:05.772Z,98554.08
2018-09-01T01:22:58.874Z,98550.30
2018-09-01T01:27:52.024Z,98549.45
2018-09-01T01:32:45.174Z,98552.03
2018-09-01T01:37:38.350Z,98548.20
2018-09-01T01:42:31.483Z,98538.21
2018-09-01T01:47:24.506Z,98528.97
2018-09-01T01:52:18.105Z,98534.42
2018-09-01T01:57:11.174Z,98532.66
2018-09-01T02:02:04.287Z,98530.58
2018-09-01T02:06:57.378Z,98531.00
2018-09-01T02:11:50.493Z,98520.84
2018-09-01T02:16:43.462Z,98520.47
2018-09-01T02:21:36.506Z,98518.91
2018-09-01T02:26:29.772Z,98518.52
2018-09-01T02:31:22.962Z,98526.27
2018-09-01T02:36:15.922Z,98524.23
2018-09-01T02:41:09.165Z,98519.84
2018-09-01T02:46:02.677Z,98524.27
2018-09-01T02:50:55.969Z,98512.51
2018-09-01T02:55:48.963Z,98521.54
2018-09-01T03:00:42.062Z,98527.27
2018-09-01T03:05:35.171Z,98525.13
2018-09-01T03:10:28.197Z,98528.89
2018-09-01T03:15:21.290Z,98532.29
2018-09-01T03:20:14.428Z,98530.52
2018-09-01T03:25:07.576Z,98529.91
2018-09-01T03:30:00.761Z,98548.16
2018-09-01T03:34:53.873Z,98549.15
2018-09-01T03:39:47.000Z,98549.34
2018-09-01T03:44:40.004Z,98554.17
2018-09-01T03:49:33.784Z,98548.41
2018-09-01T03:54:27.198Z,98564.92
2018-09-01T03:59:20.363Z,98562.16
2018-09-01T04:04:13.532Z,98563.58
2018-09-01T04:09:07.005Z,98560.31
2018-09-01T04:14:00.283Z,98561.88
2018-09-01T04:18:53.720Z,98563.84
2018-09-01T04:23:46.744Z,98568.05
2018-09-01T04:28:40.001Z,98562.91
2018-09-01T04:33:33.254Z,98560.45
2018-09-01T04:38:26.267Z,98552.08
2018-09-01T04:43:19.480Z,98548.02
2018-09-01T04:48:12.738Z,98556.56
2018-09-01T04:53:05.911Z,98549.30
2018-09-01T04:57:58.995Z,98546.64
2018-09-01T05:02:53.531Z,98540.89
2018-09-01T05:07:47.077Z,98543.47
2018-09-01T05:12:40.549Z,98545.73
2018-09-01T05:17:33.733Z,98543.16
2018-09-01T05:22:27.329Z,98544.85
2018-09-01T05:27:20.458Z,98549.70
2018-09-01T05:32:13.860Z,98540.59
2018-09-01T05:37:07.185Z,98534.00
2018-09-01T05:42:00.276Z,98536.38
2018-09-01T05:46:53.495Z,98533.98
2018-09-01T05:51:47.111Z,98535.91
2018-09-01T05:56:40.161Z,98534.33
2018-09-01T06:01:33.609Z,98532.95
2018-09-01T06:06:26.900Z,98532.11
2018-09-01T06:11:23.803Z,98538.65
2018-09-01T06:16:17.503Z,98525.78
2018-09-01T06:21:10.743Z,98522.60
2018-09-01T06:26:04.031Z,98526.87
2018-09-01T06:30:57.107Z,98529.00
2018-09-01T06:35:50.177Z,98533.85
2018-09-01T06:40:43.201Z,98535.38
2018-09-01T06:45:36.946Z,98533.19
2018-09-01T06:50:30.249Z,98529.09
2018-09-01T06:55:23.717Z,98526.11
2018-09-01T07:00:21.909Z,98523.03
2018-09-01T07:05:14.829Z,98520.33
2018-09-01T07:10:07.915Z,98522.48
2018-09-01T07:15:00.948Z,98518.46
2018-09-01T07:19:54.055Z,98518.48
2018-09-01T07:24:47.184Z,98509.46
2018-09-01T07:29:40.222Z,98524.15
2018-09-01T07:34:33.421Z,98511.41
2018-09-01T07:39:26.662Z,98505.97
2018-09-01T07:44:19.809Z,98511.37
2018-09-01T07:49:13.067Z,98514.43
2018-09-01T07:54:06.193Z,98502.92
2018-09-01T07:58:59.322Z,98500.46
2018-09-01T08:03:52.518Z,98494.58
2018-09-01T08:08:45.645Z,98494.91
2018-09-01T08:13:38.669Z,98489.63
2018-09-01T08:18:31.802Z,98497.25
2018-09-01T08:23:24.803Z,98485.16
2018-09-01T08:28:17.895Z,98498.94
2018-09-01T08:33:10.966Z,98494.14
2018-09-01T08:38:04.024Z,98495.97
2018-09-01T08:42:57.081Z,98497.88
2018-09-01T08:47:50.176Z,98482.08
2018-09-01T08:52:43.423Z,98478.00
2018-09-01T08:57:37.791Z,98460.19
2018-09-01T09:02:30.846Z,98455.36
2018-09-01T09:07:24.120Z,98445.38
2018-09-01T09:12:17.403Z,98457.11
2018-09-01T09:17:10.551Z,98463.18
2018-09-01T09:22:03.916Z,98450.30
2018-09-01T09:26:56.986Z,98440.48
2018-09-01T09:31:50.239Z,98451.70
2018-09-01T09:36:43.443Z,98447.05
2018-09-01T09:41:36.543Z,98452.64
2018-09-01T09:46:31.662Z,98465.31
2018-09-01T09:51:24.698Z,98451.45
2018-09-01T09:56:17.811Z,98436.93
2018-09-01T10:01:16.277Z,98448.36
2018-09-01T10:06:09.249Z,98445.95
2018-09-01T10:11:02.706Z,98444.27
2018-09-01T10:15:55.887Z,98439.73
2018-09-01T10:20:50.751Z,98433.48
2018-09-01T10:25:43.855Z,98423.67
2018-09-01T10:30:37.084Z,98436.17
2018-09-01T10:35:30.356Z,98428.22
2018-09-01T10:40:23.909Z,98440.97
2018-09-01T10:45:16.826Z,98421.25
2018-09-01T10:50:09.842Z,98427.19
2018-09-01T10:55:02.914Z,98421.06
2018-09-01T10:59:55.995Z,98419.87
2018-09-01T11:04:48.991Z,98423.09
2018-09-01T11:09:42.267Z,98420.23
2018-09-01T11:14:35.344Z,98424.57
2018-09-01T11:19:28.431Z,98422.61
2018-09-01T11:24:21.900Z,98420.56
2018-09-01T11:29:15.043Z,98414.65
2018-09-01T11:34:08.249Z,98428.34
2018-09-01T11:39:01.403Z,98421.13
2018-09-01T11:43:54.479Z,98416.15
2018-09-01T11:48:47.620Z,98413.48
2018-09-01T11:53:40.809Z,98403.67
2018-09-01T11:58:34.344Z,98402.26
2018-09-01T12:03:27.941Z,98397.96
2018-09-01T12:08:20.958Z,98390.08
2018-09-01T12:13:13.973Z,98384.50
2018-09-01T12:18:07.019Z,98403.14
2018-09-01T12:23:00.028Z,98385.33
2018-09-01T12:27:53.117Z,98391.22
2018-09-01T12:32:46.232Z,98386.63
2018-09-01T12:37:39.194Z,98378.19
2018-09-01T12:42:32.217Z,98394.02
2018-09-01T12:47:25.370Z,98381.98
2018-09-01T12:52:18.579Z,98395.47
2018-09-01T12:57:11.688Z,98388.30
2018-09-01T13:02:05.046Z,98375.50
2018-09-01T13:06:58.230Z,98377.74
2018-09-01T13:11:51.223Z,98370.81
2018-09-01T13:16:44.286Z,98375.94
2018-09-01T13:21:37.321Z,98370.37
2018-09-01T13:26:30.263Z,98376.56
2018-09-01T13:31:23.245Z,98373.01
2018-09-01T13:36:20.202Z,98375.01
2018-09-01T13:41:13.277Z,98372.28
2018-09-01T13:46:06.432Z,98361.95
2018-09-01T13:50:59.622Z,98357.89
2018-09-01T13:55:52.607Z,98370.14
2018-09-01T14:00:45.589Z,98359.28
2018-09-01T14:05:38.621Z,98363.28
2018-09-01T14:10:31.790Z,98352.03
2018-09-01T14:15:25.036Z,98360.41
2018-09-01T14:20:18.181Z,98371.14
2018-09-01T14:25:11.598Z,98363.90
2018-09-01T14:30:05.750Z,98359.45
2018-09-01T14:34:58.724Z,98362.88
2018-09-01T14:39:51.731Z,98373.36
2018-09-01T14:44:44.946Z,98369.57
2018-09-01T14:49:37.968Z,98366.20
2018-09-01T14:54:31.223Z,98373.58
2018-09-01T14:59:24.815Z,98365.07
2018-09-01T15:04:19.326Z,98369.06
2018-09-01T15:09:12.393Z,98366.43
2018-09-01T15:14:05.468Z,98367.25
2018-09-01T15:18:58.568Z,98368.73
2018-09-01T15:23:52.199Z,98364.55
2018-09-01T15:28:45.098Z,98371.63
2018-09-01T15:33:38.145Z,98369.20
2018-09-01T15:38:31.249Z,98362.84
2018-09-01T15:43:24.433Z,98366.86
2018-09-01T15:48:17.701Z,98370.13
2018-09-01T15:53:10.798Z,98371.05
2018-09-01T15:58:03.970Z,98368.06
2018-09-01T16:02:57.291Z,98368.89
2018-09-01T16:07:50.492Z,98377.94
2018-09-01T16:12:43.621Z,98384.34
2018-09-01T16:17:36.773Z,98376.84
2018-09-01T16:22:29.958Z,98378.57
2018-09-01T16:27:23.103Z,98384.40
2018-09-01T16:32:16.146Z,98385.39
2018-09-01T16:37:09.202Z,98380.67
2018-09-01T16:42:02.382Z,98376.73
2018-09-01T16:46:55.475Z,98394.23
2018-09-01T16:51:48.453Z,98395.58
2018-09-01T16:56:41.547Z,98401.28
2018-09-01T17:01:34.951Z,98403.21
2018-09-01T17:06:28.102Z,98414.98
2018-09-01T17:11:36.082Z,98426.36
2018-09-01T17:16:29.407Z,98434.75
2018-09-01T17:21:22.913Z,98435.80
2018-09-01T17:26:15.977Z,98450.86
2018-09-01T17:31:09.379Z,98452.14
2018-09-01T17:36:03.536Z,98456.69
2018-09-01T17:40:56.552Z,98459.83
2018-09-01T17:45:50.708Z,98470.16
2018-09-01T17:50:44.941Z,98471.04
2018-09-01T17:55:38.084Z,98465.80
2018-09-01T18:00:31.213Z,98472.00
2018-09-01T18:05:24.209Z,98478.28
2018-09-01T18:10:17.346Z,98478.02
2018-09-01T18:15:10.485Z,98480.98
2018-09-01T18:20:03.564Z,98485.19
2018-09-01T18:24:56.631Z,98485.20
2018-09-01T18:29:49.674Z,98488.70
2018-09-01T18:34:43.380Z,98488.14
2018-09-01T18:39:36.562Z,98487.38
2018-09-01T18:44:29.698Z,98490.13
2018-09-01T18:49:22.754Z,98492.22
2018-09-01T18:54:16.749Z,98489.31
2018-09-01T18:59:10.351Z,98493.88
2018-09-01T19:04:03.485Z,98486.71
2018-09-01T19:08:56.725Z,98492.77
2018-09-01T19:13:49.939Z,98490.99
2018-09-01T19:18:42.913Z,98496.39
2018-09-01T19:23:35.897Z,98499.30
2018-09-01T19:28:29.026Z,98497.33
2018-09-01T19:33:22.021Z,98496.66
2018-09-01T19:38:15.275Z,98498.33
2018-09-01T19:43:08.493Z,98506.08
2018-09-01T19:48:01.525Z,98503.20
2018-09-01T19:52:54.811Z,98496.69
2018-09-01T19:57:47.839Z,98491.79
2018-09-01T20:02:40.849Z,98497.80
2018-09-01T20:07:34.087Z,98500.56
2018-09-01T20:12:27.310Z,98505.89
2018-09-01T20:17:20.318Z,98511.30
2018-09-01T20:22:13.594Z,98506.48
2018-09-01T20:27:06.563Z,98514.64
2018-09-01T20:31:59.833Z,98505.84
2018-09-01T20:36:54.288Z,98513.55
2018-09-01T20:41:47.301Z,98522.11
2018-09-01T20:46:40.319Z,98517.60
2018-09-01T20:51:33.444Z,98516.57
2018-09-01T20:56:27.084Z,98517.42
2018-09-01T21:01:20.392Z,98519.21
2018-09-01T21:06:13.538Z,98527.98
2018-09-01T21:11:06.695Z,98528.32
2018-09-01T21:15:59.801Z,98515.81
2018-09-01T21:20:52.996Z,98507.86
2018-09-01T21:25:47.023Z,98502.03
2018-09-01T21:30:40.023Z,98495.91
2018-09-01T21:35:33.408Z,98499.66
2018-09-01T21:40:27.075Z,98515.06
2018-09-01T21:45:20.444Z,98513.28
2018-09-01T21:50:13.566Z,98498.70
2018-09-01T21:55:06.686Z,98503.31
2018-09-01T21:59:59.855Z,98494.05
2018-09-01T22:04:58.345Z,98496.41
2018-09-01T22:09:53.334Z,98515.09
2018-09-01T22:14:46.460Z,98514.14
2018-09-01T22:19:40.247Z,98500.25
2018-09-01T22:24:33.433Z,98509.17
2018-09-01T22:29:26.889Z,98502.72
2018-09-01T22:34:20.182Z,98505.84
2018-09-01T22:39:14.272Z,98496.31
2018-09-01T22:44:07.514Z,98490.16
2018-09-01T22:49:00.981Z,98489.48
2018-09-01T22:53:53.932Z,98499.93
2018-09-01T22:58:47.288Z,98501.22
2018-09-01T23:03:40.374Z,98496.03
2018-09-01T23:08:33.426Z,98489.70
2018-09-01T23:13:26.690Z,98500.62
2018-09-01T23:18:19.906Z,98501.31
2018-09-01T23:23:13.080Z,98501.60
2018-09-01T23:28:06.364Z,98494.45
2018-09-01T23:32:59.522Z,98485.73
2018-09-01T23:37:52.747Z,98482.31
2018-09-01T23:42:45.888Z,98486.80
2018-09-01T23:47:38.919Z,98481.55
2018-09-01T23:52:32.502Z,98487.62
2018-09-01T23:57:25.698Z,98488.48
